Time;durP1;ratioP1;P1;durP2;ratioP2;P2;SDS_P1;SDS_P2;PMS_P1;PMS_P2;Temp;Humidity;BMP_temperature;BMP_pressure;BME280_temperature;BME280_humidity;BME280_pressure;Samples;Min_cycle;Max_cycle;Signal;HPM_P1;HPM_P2
2020/12/29 00:01:48;;;;;;;56.63;28.25;;;;;;;0.43;100.00;98670.31;1728113;82;21172;-73
2020/12/29 00:04:22;;;;;;;51.58;24.92;;;;;;;0.42;100.00;98673.47;1727985;83;21253;-71
2020/12/29 00:06:56;;;;;;;50.63;26.07;;;;;;;0.42;100.00;98660.27;1725760;82;21200;-73
2020/12/29 00:09:28;;;;;;;47.40;20.77;;;;;;;0.41;100.00;98681.59;1727687;82;20993;-72
2020/12/29 00:11:59;;;;;;;49.73;22.37;;;;;;;0.41;100.00;98671.83;1727776;83;21549;-73
2020/12/29 00:14:28;;;;;;;57.62;26.82;;;;;;;0.43;100.00;98683.00;1707678;83;21136;-71
2020/12/29 00:16:56;;;;;;;63.15;30.70;;;;;;;0.44;100.00;98686.44;1727821;83;21447;-71
2020/12/29 00:19:27;;;;;;;53.52;26.50;;;;;;;0.45;100.00;98687.27;1728170;83;21572;-71
2020/12/29 00:21:55;;;;;;;46.92;21.35;;;;;;;0.45;100.00;98687.27;1727997;83;21595;-71
2020/12/29 00:24:23;;;;;;;45.60;23.98;;;;;;;0.45;100.00;98699.16;1728199;82;21632;-71
2020/12/29 00:26:56;;;;;;;55.92;25.35;;;;;;;0.43;100.00;98688.27;1692845;84;21022;-72
2020/12/29 00:29:25;;;;;;;52.85;23.80;;;;;;;0.45;100.00;98683.31;1692607;84;21254;-72
2020/12/29 00:31:53;;;;;;;43.87;23.83;;;;;;;0.45;100.00;98693.36;1663320;86;21655;-71
2020/12/29 00:34:24;;;;;;;54.13;26.27;;;;;;;0.46;100.00;98675.68;1692816;84;20954;-72
2020/12/29 00:36:52;;;;;;;51.95;26.20;;;;;;;0.46;100.00;98666.44;1686018;85;21062;-71
2020/12/29 00:39:23;;;;;;;51.42;26.10;;;;;;;0.48;100.00;98671.81;1663379;86;21072;-72
2020/12/29 00:41:51;;;;;;;51.75;27.42;;;;;;;0.48;100.00;98668.37;1692627;84;21423;-72
2020/12/29 00:44:20;;;;;;;55.98;27.45;;;;;;;0.47;100.00;98671.52;1672921;84;21647;-72
2020/12/29 00:46:52;;;;;;;61.60;30.43;;;;;;;0.49;100.00;98662.89;1692700;84;20931;-71
2020/12/29 00:49:21;;;;;;;64.65;31.80;;;;;;;0.50;100.00;98642.05;1695937;84;20930;-71
2020/12/29 00:51:49;;;;;;;;;;;;;;;0.49;100.00;98650.17;1695171;84;20942;-72
2020/12/29 00:54:20;;;;;;;66.22;30.92;;;;;;;0.47;100.00;98649.08;1672916;84;21407;-72
2020/12/29 00:56:50;;;;;;;57.70;28.40;;;;;;;0.45;100.00;98643.19;1692337;84;20954;-72
2020/12/29 00:59:20;;;;;;;62.85;29.82;;;;;;;0.43;100.00;98615.67;1683258;84;21655;-72
2020/12/29 01:02:03;;;;;;;73.72;34.65;;;;;;;0.42;100.00;98653.67;1691318;84;21228;-72
2020/12/29 01:04:53;;;;;;;56.45;25.52;;;;;;;0.43;100.00;98642.59;1691399;84;21600;-73
2020/12/29 01:07:23;;;;;;;54.90;27.02;;;;;;;0.44;100.00;98633.63;1691459;84;21196;-73
2020/12/29 01:09:55;;;;;;;55.40;21.73;;;;;;;0.41;100.00;98624.30;1691354;84;21207;-73
2020/12/29 01:12:30;;;;;;;55.80;27.35;;;;;;;0.42;100.00;98628.58;1691613;84;20971;-72
2020/12/29 01:15:01;;;;;;;45.65;19.05;;;;;;;0.42;100.00;98631.22;1672878;84;20939;-72
2020/12/29 01:17:35;;;;;;;54.50;23.20;;;;;;;0.43;100.00;98622.79;1662739;86;21094;-72
2020/12/29 01:20:07;;;;;;;56.42;28.80;;;;;;;0.42;100.00;98607.98;1684346;85;21468;-73
2020/12/29 01:22:35;;;;;;;62.33;32.08;;;;;;;0.43;100.00;98612.23;1663222;86;21030;-73
2020/12/29 01:25:05;;;;;;;51.08;22.48;;;;;;;0.43;100.00;98616.19;1692712;84;21212;-74
2020/12/29 01:27:37;;;;;;;48.30;24.87;;;;;;;0.42;100.00;98607.98;1692557;84;20987;-73
2020/12/29 01:30:05;;;;;;;44.83;20.45;;;;;;;0.47;100.00;98587.55;1692714;84;21018;-73
2020/12/29 01:32:38;;;;;;;53.33;26.85;;;;;;;0.49;100.00;98601.32;1668568;85;21466;-73
2020/12/29 01:35:07;;;;;;;50.17;22.93;;;;;;;0.52;100.00;98617.56;1663155;86;21038;-73
2020/12/29 01:37:42;;;;;;;46.48;21.30;;;;;;;0.54;100.00;98587.80;1692379;84;21065;-73
2020/12/29 01:40:20;;;;;;;43.05;24.12;;;;;;;0.53;100.00;98600.69;1692505;84;21723;-73
2020/12/29 01:42:49;;;;;;;44.95;21.33;;;;;;;0.55;100.00;98592.56;1685974;85;21169;-73
2020/12/29 01:45:20;;;;;;;55.08;26.23;;;;;;;0.59;100.00;98591.13;1663243;86;21399;-73
2020/12/29 01:47:50;;;;;;;50.15;25.68;;;;;;;0.59;100.00;98584.02;1692422;84;20954;-72
2020/12/29 01:50:24;;;;;;;40.00;21.42;;;;;;;0.58;100.00;98574.45;1692423;84;21014;-72
2020/12/29 01:52:57;;;;;;;48.35;25.17;;;;;;;0.54;100.00;98566.68;1685819;85;21090;-73
2020/12/29 01:55:28;;;;;;;54.25;28.65;;;;;;;0.52;100.00;98545.47;1639639;87;21156;-72
2020/12/29 01:58:01;;;;;;;45.88;23.92;;;;;;;0.50;100.00;98552.80;1661309;86;21224;-73
2020/12/29 02:00:30;;;;;;;48.48;26.48;;;;;;;0.45;100.00;98556.06;1702334;84;20955;-73
2020/12/29 02:03:00;;;;;;;30.05;16.90;;;;;;;0.44;100.00;98561.03;1702586;84;21498;-73
2020/12/29 02:05:33;;;;;;;46.40;25.23;;;;;;;0.44;100.00;98570.27;1702594;84;21053;-72
2020/12/29 02:08:01;;;;;;;38.60;19.40;;;;;;;0.43;100.00;98562.06;1668495;86;21070;-73
2020/12/29 02:10:30;;;;;;;34.92;17.77;;;;;;;0.43;100.00;98556.27;1702629;84;21315;-73
2020/12/29 02:12:58;;;;;;;45.60;24.00;;;;;;;0.44;100.00;98564.99;1702603;84;28657;-72
2020/12/29 02:15:30;;;;;;;55.60;28.23;;;;;;;0.46;100.00;98572.71;1667616;86;21062;-73
2020/12/29 02:18:07;;;;;;;33.40;16.80;;;;;;;0.45;100.00;98556.06;1702461;84;20962;-73
2020/12/29 02:20:37;;;;;;;49.67;24.35;;;;;;;0.46;100.00;98528.63;1701973;84;21189;-72
2020/12/29 02:23:13;;;;;;;45.10;21.27;;;;;;;0.49;100.00;98537.95;1702294;83;21312;-73
2020/12/29 02:25:51;;;;;;;35.50;17.15;;;;;;;0.57;100.00;98519.23;1851855;77;22148;-71
2020/12/29 02:28:21;;;;;;;34.23;18.23;;;;;;;0.51;100.00;98527.99;1819057;78;21074;-70
2020/12/29 02:30:50;;;;;;;;;;;;;;;0.50;100.00;98520.59;1822537;78;21301;-71
2020/12/29 02:33:18;;;;;;;33.28;19.10;;;;;;;0.49;100.00;98530.87;1820098;78;20617;-72
2020/12/29 02:35:47;;;;;;;42.73;20.65;;;;;;;0.48;100.00;98510.75;1820044;78;20915;-71
2020/12/29 02:38:22;;;;;;;39.45;22.25;;;;;;;0.49;100.00;98523.44;1820121;78;21581;-72
2020/12/29 02:40:52;;;;;;;38.42;19.73;;;;;;;0.48;100.00;98505.98;1819953;78;21450;-72
2020/12/29 02:43:21;;;;;;;43.23;23.25;;;;;;;0.48;100.00;98513.39;1749989;82;21373;-72
2020/12/29 02:45:49;;;;;;;44.67;20.45;;;;;;;0.48;100.00;98516.03;1820005;78;28198;-71
2020/12/29 02:48:17;;;;;;;47.25;24.00;;;;;;;0.49;100.00;98532.19;1750155;82;20995;-71
2020/12/29 02:50:46;;;;;;;33.83;19.37;;;;;;;0.49;100.00;98525.59;1819969;78;20919;-71
2020/12/29 02:53:16;;;;;;;39.53;22.75;;;;;;;0.48;100.00;98513.39;1819815;78;20872;-71
2020/12/29 02:55:44;;;;;;;42.73;21.93;;;;;;;0.49;100.00;98535.31;1750003;82;21211;-71
2020/12/29 02:58:18;;;;;;;31.25;17.73;;;;;;;0.47;100.00;98523.66;1818040;78;21620;-71
2020/12/29 03:00:45;;;;;;;32.42;17.55;;;;;;;0.46;100.00;98503.55;1747966;82;21668;-72
2020/12/29 03:03:17;;;;;;;43.73;21.25;;;;;;;0.46;100.00;98498.27;1817880;78;21620;-72
2020/12/29 03:05:57;;;;;;;38.15;20.40;;;;;;;0.47;100.00;98506.50;1750001;82;21470;-72
2020/12/29 03:08:21;;;;;;;44.77;22.27;;;;;;;0.47;100.00;98484.06;1787621;78;22151;-71
2020/12/29 03:10:50;;;;;;;;;;;;;;;0.49;100.00;98459.58;1723364;82;20944;-71
2020/12/29 03:13:19;;;;;;;38.55;19.00;;;;;;;0.49;100.00;98494.39;1780640;80;20502;-72
2020/12/29 03:15:47;;;;;;;29.00;16.87;;;;;;;0.50;100.00;98500.79;1781035;80;20912;-71
2020/12/29 03:18:15;;;;;;;36.88;19.65;;;;;;;0.52;100.00;98458.34;1781015;80;26962;-71
2020/12/29 03:20:45;;;;;;;35.92;18.77;;;;;;;0.51;100.00;98509.51;1818513;78;21576;-72
2020/12/29 03:23:15;;;;;;;39.90;20.45;;;;;;;0.52;100.00;98505.34;1819412;78;21129;-72
2020/12/29 03:25:46;;;;;;;36.75;19.15;;;;;;;0.51;100.00;98503.71;1749748;81;21027;-72
2020/12/29 03:28:18;;;;;;;32.20;17.40;;;;;;;0.54;100.00;98487.95;1819659;78;20975;-73
2020/12/29 03:30:48;;;;;;;33.05;17.07;;;;;;;0.54;100.00;98468.98;1749742;82;20932;-72
2020/12/29 03:33:16;;;;;;;33.53;16.30;;;;;;;0.55;100.00;98469.78;1819823;78;21208;-73
2020/12/29 03:35:48;;;;;;;36.53;16.70;;;;;;;0.56;100.00;98471.39;1749742;82;20951;-72
2020/12/29 03:38:18;;;;;;;33.65;18.57;;;;;;;0.57;100.00;98480.94;1819364;78;20939;-72
2020/12/29 03:40:49;;;;;;;32.53;19.45;;;;;;;0.56;100.00;98489.35;1819225;78;21047;-72
2020/12/29 03:43:18;;;;;;;35.15;17.75;;;;;;;0.57;100.00;98486.22;1819275;78;21023;-73
2020/12/29 03:45:49;;;;;;;30.40;17.32;;;;;;;0.57;100.00;98474.34;1749228;82;20896;-72
2020/12/29 03:48:22;;;;;;;42.17;23.18;;;;;;;0.58;100.00;98476.75;1819198;78;20991;-72
2020/12/29 03:50:53;;;;;;;33.28;18.48;;;;;;;0.58;100.00;98477.27;1749481;82;21059;-73
2020/12/29 03:53:24;;;;;;;33.75;18.90;;;;;;;0.57;100.00;98455.34;1819147;78;21031;-73
2020/12/29 03:55:53;;;;;;;31.27;18.55;;;;;;;0.55;100.00;98437.58;1819246;78;20981;-71
2020/12/29 03:58:25;;;;;;;38.75;17.67;;;;;;;0.54;100.00;98457.59;1749657;82;22162;-72
2020/12/29 04:00:53;;;;;;;39.03;20.00;;;;;;;0.51;100.00;98420.54;1819234;78;20940;-73
2020/12/29 04:03:21;;;;;;;31.52;17.65;;;;;;;0.49;100.00;98482.02;1749548;81;21149;-71
2020/12/29 04:05:50;;;;;;;40.90;21.12;;;;;;;0.46;100.00;98466.59;1819327;78;20912;-71
2020/12/29 04:08:20;;;;;;;37.73;22.05;;;;;;;0.43;100.00;98445.91;1749366;82;20924;-72
2020/12/29 04:10:49;;;;;;;34.88;19.52;;;;;;;0.42;100.00;98456.18;1819401;78;21581;-72
2020/12/29 04:13:17;;;;;;;27.95;15.48;;;;;;;0.41;100.00;98442.14;1749624;82;20955;-72
2020/12/29 04:15:47;;;;;;;;;;;;;;;0.40;100.00;98453.73;1821864;78;20944;-73
2020/12/29 04:18:20;;;;;;;32.73;18.05;;;;;;;0.41;100.00;98456.66;1819195;78;20160;-72
2020/12/29 04:20:50;;;;;;;28.40;16.73;;;;;;;0.40;100.00;98462.18;1819168;78;20900;-72
2020/12/29 04:23:21;;;;;;;29.25;13.22;;;;;;;0.41;100.00;98446.63;1749381;82;21440;-72
2020/12/29 04:25:50;;;;;;;32.70;16.90;;;;;;;0.42;100.00;98447.74;1823224;78;20987;-71
2020/12/29 04:28:23;;;;;;;40.25;22.20;;;;;;;0.45;100.00;98430.66;1751633;81;21010;-71
2020/12/29 04:30:54;;;;;;;28.65;14.47;;;;;;;0.46;100.00;98429.63;1754681;81;21047;-71
2020/12/29 04:33:22;;;;;;;25.00;13.83;;;;;;;0.46;100.00;98404.55;1755091;81;20983;-72
2020/12/29 04:35:54;;;;;;;34.05;17.37;;;;;;;0.46;100.00;98397.94;1786343;80;21301;-71
2020/12/29 04:38:26;;;;;;;42.17;20.12;;;;;;;0.48;100.00;98428.09;1727683;81;21487;-72
2020/12/29 04:40:59;;;;;;;33.50;18.95;;;;;;;0.51;100.00;98425.82;1754840;81;21621;-72
2020/12/29 04:43:27;;;;;;;33.95;17.05;;;;;;;0.52;100.00;98427.97;1754965;81;20888;-73
2020/12/29 04:45:56;;;;;;;;;;;;;;;0.52;100.00;98422.17;1788911;80;21034;-72
2020/12/29 04:48:27;;;;;;;36.55;19.73;;;;;;;0.52;100.00;98422.17;1786283;80;21424;-74
2020/12/29 04:51:07;;;;;;;32.03;16.48;;;;;;;0.52;100.00;98412.94;1753826;81;20939;-72
2020/12/29 04:53:39;;;;;;;32.65;15.53;;;;;;;0.53;100.00;98402.66;1753740;81;20956;-72
2020/12/29 04:56:10;;;;;;;33.02;17.27;;;;;;;0.54;100.00;98417.98;1753338;81;20940;-72
2020/12/29 04:58:39;;;;;;;27.25;16.15;;;;;;;0.54;100.00;98417.98;1753439;81;21482;-73
2020/12/29 05:01:10;;;;;;;;;;;;;;;0.54;100.00;98399.50;1756171;81;22270;-72
2020/12/29 05:03:47;;;;;;;25.08;12.85;;;;;;;0.55;100.00;98387.92;1755026;81;20248;-72
2020/12/29 05:06:22;;;;;;;28.73;16.60;;;;;;;0.55;100.00;98375.52;1754977;81;21706;-72
2020/12/29 05:08:57;;;;;;;30.50;18.73;;;;;;;0.58;100.00;98386.16;1754191;80;20999;-72
2020/12/29 05:11:26;;;;;;;29.77;14.05;;;;;;;0.59;100.00;98379.36;1754580;81;21063;-71
2020/12/29 05:13:58;;;;;;;28.00;15.93;;;;;;;0.63;100.00;98386.31;1770431;81;21366;-73
2020/12/29 05:16:27;;;;;;;49.58;22.50;;;;;;;0.65;100.00;98386.91;1763669;81;20943;-73
2020/12/29 05:18:57;;;;;;;33.78;18.57;;;;;;;0.68;100.00;98395.71;1763871;81;20892;-73
2020/12/29 05:21:36;;;;;;;29.95;15.13;;;;;;;0.71;100.00;98387.86;1763517;81;21168;-73
2020/12/29 05:24:23;;;;;;;29.90;14.30;;;;;;;0.73;100.00;98377.37;1763318;81;21192;-74
2020/12/29 05:26:55;;;;;;;34.55;19.40;;;;;;;0.75;100.00;98388.53;1746532;82;21206;-73
2020/12/29 05:29:28;;;;;;;34.53;20.95;;;;;;;0.77;100.00;98385.69;1746555;82;21482;-72
2020/12/29 05:32:04;;;;;;;43.55;23.10;;;;;;;0.78;100.00;98389.92;1744394;82;21091;-72
2020/12/29 05:34:33;;;;;;;38.10;20.80;;;;;;;0.77;100.00;98390.45;1746187;81;21611;-73
2020/12/29 05:37:02;;;;;;;38.63;22.27;;;;;;;0.79;100.00;98399.48;1719835;82;21079;-73
2020/12/29 05:39:42;;;;;;;;;;;;;;;;;;;;;
2020/12/29 05:42:09;;;;;;;32.83;19.25;;;;;;;0.82;100.00;98395.08;1841780;77;22326;-73
2020/12/29 05:44:40;;;;;;;36.08;21.20;;;;;;;0.77;100.00;98401.53;1817121;79;20868;-73
2020/12/29 05:47:12;;;;;;;31.80;16.87;;;;;;;0.78;100.00;98400.50;1743312;82;21379;-73
2020/12/29 05:50:00;;;;;;;34.00;17.30;;;;;;;0.81;100.00;98398.77;1852235;77;22661;-72
2020/12/29 05:52:37;;;;;;;41.90;20.00;;;;;;;0.77;100.00;98401.53;1784276;78;21536;-72
2020/12/29 05:55:13;;;;;;;33.83;18.48;;;;;;;0.74;100.00;98398.02;1819021;78;21367;-72
2020/12/29 05:57:45;;;;;;;35.88;21.30;;;;;;;0.73;100.00;98406.42;1749862;82;21486;-73
2020/12/29 06:00:15;;;;;;;52.55;26.87;;;;;;;0.71;100.00;98415.59;1788514;78;20955;-73
2020/12/29 06:02:49;;;;;;;30.25;17.37;;;;;;;0.67;100.00;98414.44;1749439;82;21022;-73
2020/12/29 06:05:21;;;;;;;34.38;19.92;;;;;;;0.66;100.00;98411.48;1819298;78;21613;-73
2020/12/29 06:08:21;;;;;;;36.77;18.62;;;;;;;0.63;100.00;98410.88;1818486;78;21391;-73
2020/12/29 06:11:21;;;;;;;34.73;17.35;;;;;;;0.66;100.00;98418.09;1789722;79;22681;-71
2020/12/29 06:14:26;;;;;;;40.08;21.00;;;;;;;0.65;100.00;98430.48;1837972;77;22280;-72
2020/12/29 06:16:56;;;;;;;37.35;20.65;;;;;;;0.61;100.00;98431.45;1812995;79;20978;-72
2020/12/29 06:20:00;;;;;;;40.80;21.80;;;;;;;0.58;100.00;98425.25;1807433;79;21431;-73
2020/12/29 06:22:28;;;;;;;36.93;19.42;;;;;;;0.56;100.00;98406.17;1810853;78;21564;-73
2020/12/29 06:25:07;;;;;;;35.28;20.88;;;;;;;0.55;100.00;98427.53;1695043;82;21210;-73
2020/12/29 06:27:52;;;;;;;36.50;21.95;;;;;;;0.53;100.00;98417.70;1780459;80;21003;-73
2020/12/29 06:30:41;;;;;;;34.25;20.60;;;;;;;0.52;100.00;98426.14;1733876;82;21042;-74
2020/12/29 06:34:07;;;;;;;30.45;17.35;;;;;;;0.51;100.00;98427.14;1606345;88;21237;-74
2020/12/29 06:36:50;;;;;;;34.43;20.20;;;;;;;0.53;100.00;98427.73;1846792;77;26243;-72
2020/12/29 06:39:29;;;;;;;30.27;17.05;;;;;;;0.46;100.00;98418.27;1800217;78;20942;-73
2020/12/29 07:41:43;;;;;;;34.85;18.42;;;;;;;0.44;100.00;98360.38;1787963;74;21216;-73
2020/12/29 09:20:58;;;;;;;;;;;;;;;;;;;;;
2020/12/29 09:24:13;;;;;;;28.25;15.03;;;;;;;1.26;100.00;98271.05;1838759;77;23437;-76
2020/12/29 09:40:45;;;;;;;;;;;;;;;;;;;;;
2020/12/29 10:05:37;;;;;;;18.85;11.50;;;;;;;2.12;100.00;98249.05;1755425;78;22738;-73
2020/12/29 10:19:38;;;;;;;17.60;12.28;;;;;;;2.18;100.00;98216.06;1745411;77;27196;-74
2020/12/29 10:39:04;;;;;;;;;;;;;;;;;;;;;
2020/12/29 10:41:55;;;;;;;;;;;;;;;;;;;;;
2020/12/29 10:55:19;;;;;;;18.45;10.28;;;;;;;2.41;100.00;98227.16;1815153;77;22066;-73
2020/12/29 10:57:54;;;;;;;18.05;11.48;;;;;;;2.38;100.00;98225.79;1774210;80;21149;-74
2020/12/29 11:01:09;;;;;;;14.68;9.30;;;;;;;2.44;100.00;98224.05;1865241;75;28008;-74
2020/12/29 11:03:45;;;;;;;15.58;9.13;;;;;;;2.38;100.00;98207.25;1826380;77;21534;-72
2020/12/29 11:06:35;;;;;;;21.25;10.98;;;;;;;2.39;100.00;98223.94;1789590;79;21674;-73
2020/12/29 11:09:03;;;;;;;23.75;14.43;;;;;;;2.38;100.00;98220.98;1807686;78;21623;-71
2020/12/29 11:11:43;;;;;;;19.90;10.50;;;;;;;2.38;100.00;98223.63;1816657;78;21163;-73
2020/12/29 11:14:29;;;;;;;18.30;11.30;;;;;;;2.38;100.00;98215.20;1807017;78;20932;-74
2020/12/29 11:17:14;;;;;;;;;;;;;;;;;;;;;
2020/12/29 11:19:47;;;;;;;21.52;11.68;;;;;;;2.38;100.00;98219.66;1795155;79;21034;-76
2020/12/29 11:30:49;;;;;;;;;;;;;;;;;;;;;
2020/12/29 11:44:30;;;;;;;19.95;11.83;;;;;;;2.38;100.00;98234.23;1749597;80;27666;-75
2020/12/29 11:47:01;;;;;;;19.60;10.78;;;;;;;2.35;100.00;98248.25;1707155;82;21070;-75
2020/12/29 11:49:32;;;;;;;22.87;11.55;;;;;;;2.35;100.00;98239.47;1739256;81;22095;-75
2020/12/29 11:55:05;;;;;;;26.00;14.43;;;;;;;2.42;100.00;98228.23;1874481;76;26853;-74
2020/12/29 11:57:40;;;;;;;30.23;15.83;;;;;;;2.39;100.00;98218.64;1854343;77;20980;-73
2020/12/29 12:00:18;;;;;;;26.73;13.88;;;;;;;2.40;100.00;98225.04;1832807;77;21285;-74
2020/12/29 12:03:37;;;;;;;27.73;16.05;;;;;;;2.41;100.00;98214.72;1836976;77;21154;-75
2020/12/29 12:07:10;;;;;;;24.37;13.32;;;;;;;2.41;100.00;98216.05;1828158;77;21436;-75
2020/12/29 13:14:11;;;;;;;45.45;26.30;;;;;;;2.92;100.00;98297.89;1569626;90;21266;-74
2020/12/29 13:17:03;;;;;;;45.08;24.63;;;;;;;3.01;100.00;98315.54;1848394;76;24015;-73
2020/12/29 13:19:55;;;;;;;;;;;;;;;;;;;;;
2020/12/29 13:23:07;;;;;;;45.98;21.97;;;;;;;3.03;100.00;98307.36;1811491;78;20998;-73
2020/12/29 13:30:43;;;;;;;;;;;;;;;;;;;;;
2020/12/29 13:41:46;;;;;;;47.48;25.88;;;;;;;3.23;100.00;98370.06;1720269;83;21696;-72
2020/12/29 13:44:17;;;;;;;56.40;26.40;;;;;;;3.28;100.00;98370.16;1723636;83;21718;-72
2020/12/29 13:56:38;;;;;;;59.33;28.15;;;;;;;3.40;100.00;98346.27;1480573;96;21293;-74
2020/12/29 14:26:18;;;;;;;56.25;29.92;;;;;;;3.83;100.00;98375.45;1699984;75;23121;31
2020/12/29 14:28:48;;;;;;;45.90;26.37;;;;;;;3.91;100.00;98388.33;1728567;80;21675;-71
2020/12/29 14:31:17;;;;;;;48.42;28.02;;;;;;;4.01;100.00;98394.34;1743881;81;21061;-72
2020/12/29 14:33:51;;;;;;;;;;;;;;;4.05;100.00;98396.81;1715164;81;22204;-71
2020/12/29 14:36:34;;;;;;;56.80;28.12;;;;;;;4.08;100.00;98402.96;1707067;82;20554;-70
2020/12/29 14:39:06;;;;;;;56.13;29.70;;;;;;;4.15;100.00;98398.83;1693877;83;20982;-72
2020/12/29 14:41:35;;;;;;;46.70;27.80;;;;;;;4.21;100.00;98405.30;1701186;81;21514;-73
2020/12/29 14:44:04;;;;;;;45.83;25.57;;;;;;;4.26;100.00;98412.55;1691554;83;20939;-72
2020/12/29 14:46:32;;;;;;;48.58;25.65;;;;;;;4.26;100.00;98416.03;1711418;81;21258;-72
2020/12/29 14:49:02;;;;;;;;;;;;;;;4.25;100.00;98417.59;1717757;81;20990;-72
2020/12/29 14:56:22;;;;;;;44.50;25.35;;;;;;;4.18;100.00;98428.36;1714590;81;21265;-73
2020/12/29 14:59:32;;;;;;;48.33;25.90;;;;;;;4.15;100.00;98426.19;1649578;85;21122;-71
2020/12/29 15:02:35;;;;;;;52.17;27.83;;;;;;;4.15;100.00;98436.81;1640666;84;21672;-71
2020/12/29 15:09:28;;;;;;;42.73;25.35;;;;;;;4.16;100.00;98453.55;1792914;78;20973;-73
2020/12/29 15:12:23;;;;;;;47.20;28.45;;;;;;;4.12;100.00;98452.44;1788496;78;21598;-73
2020/12/29 15:15:14;;;;;;;58.15;33.25;;;;;;;4.04;100.00;98453.10;1756745;80;21011;-73
2020/12/29 15:17:43;;;;;;;51.18;33.13;;;;;;;3.97;100.00;98453.77;1753720;80;21039;-73
2020/12/29 15:20:29;;;;;;;39.13;22.93;;;;;;;3.91;100.00;98453.90;1755215;80;21054;-73
2020/12/29 15:23:13;;;;;;;47.20;27.05;;;;;;;3.89;100.00;98458.63;1755261;79;21309;-74
2020/12/29 15:25:42;;;;;;;53.60;30.15;;;;;;;3.86;100.00;98467.35;1759322;80;21899;-73
2020/12/29 15:28:14;;;;;;;53.75;29.72;;;;;;;3.83;100.00;98478.98;1760171;80;20959;-72
2020/12/29 15:30:58;;;;;;;51.90;29.90;;;;;;;3.78;100.00;98472.25;1751213;81;21529;-74
2020/12/29 15:33:42;;;;;;;55.12;32.38;;;;;;;3.73;100.00;98482.77;1749112;81;21130;-74
2020/12/29 15:51:12;;;;;;;67.82;37.00;;;;;;;3.50;100.00;98506.95;1802523;76;22055;-73
2020/12/29 15:53:58;;;;;;;70.05;38.58;;;;;;;3.35;100.00;98511.42;1782823;80;21157;-75
2020/12/29 15:57:19;;;;;;;72.25;42.13;;;;;;;3.27;100.00;98516.28;1768046;80;20995;-73
2020/12/29 16:00:22;;;;;;;125.65;69.72;;;;;;;3.21;100.00;98514.84;1744123;80;21176;-74
2020/12/29 16:07:52;;;;;;;74.03;47.88;;;;;;;3.15;100.00;98526.89;1713762;82;21720;-75
2020/12/29 16:10:33;;;;;;;71.90;43.90;;;;;;;3.11;100.00;98537.16;1716325;81;21062;-73
2020/12/29 16:13:07;;;;;;;71.28;43.65;;;;;;;3.06;100.00;98539.66;1750458;80;21435;-74
2020/12/29 17:21:44;;;;;;;;;;;;;;;;;;;;;
2020/12/29 17:25:03;;;;;;;63.02;27.65;;;;;;;2.74;100.00;98655.27;1817130;77;22652;-74
2020/12/29 17:46:56;;;;;;;47.78;28.17;;;;;;;2.54;100.00;98693.12;1717670;80;21249;-73
2020/12/29 17:50:09;;;;;;;;;;;;;;;;;;;;;
2020/12/29 18:24:06;;;;;;;;;;;;;;;;;;;;;
2020/12/29 20:23:33;;;;;;;113.17;51.25;;;;;;;1.83;100.00;98873.10;1534991;89;22537;-75
